createdAt,value
2022-10-17T00:00:11.944Z,58.46
2022-10-17T00:01:11.945Z,58.55
2022-10-17T00:02:11.945Z,57.68
2022-10-17T00:03:11.920Z,57.60
2022-10-17T00:04:11.922Z,59.38
2022-10-17T00:05:11.908Z,57.82
2022-10-17T00:06:11.906Z,58.21
2022-10-17T00:07:11.913Z,57.77
2022-10-17T00:08:11.898Z,60.17
2022-10-17T00:09:11.877Z,57.52
2022-10-17T00:10:11.903Z,57.93
2022-10-17T00:11:11.862Z,58.00
2022-10-17T00:12:11.859Z,57.74
2022-10-17T00:13:11.882Z,62.01
2022-10-17T00:14:11.846Z,57.71
2022-10-17T00:15:11.866Z,62.13
2022-10-17T00:16:11.824Z,58.87
2022-10-17T00:17:11.857Z,57.91
2022-10-17T00:18:11.847Z,61.71
2022-10-17T00:19:11.821Z,57.58
2022-10-17T00:20:11.805Z,57.22
2022-10-17T00:21:11.819Z,57.83
2022-10-17T00:22:11.788Z,65.97
2022-10-17T00:23:11.779Z,57.17
2022-10-17T00:24:11.818Z,59.43
2022-10-17T00:25:11.789Z,56.83
2022-10-17T00:26:11.778Z,56.74
2022-10-17T00:27:11.763Z,56.35
2022-10-17T00:28:11.763Z,56.02
2022-10-17T00:29:11.758Z,56.73
2022-10-17T00:30:11.743Z,60.70
2022-10-17T00:31:11.737Z,57.39
2022-10-17T00:32:11.762Z,56.52
2022-10-17T00:33:11.710Z,56.62
2022-10-17T00:34:11.748Z,57.01
2022-10-17T00:35:11.702Z,63.41
2022-10-17T00:36:11.721Z,59.72
2022-10-17T00:37:11.697Z,55.56
2022-10-17T00:38:11.707Z,60.14
2022-10-17T00:39:11.689Z,56.45
2022-10-17T00:40:11.669Z,58.28
2022-10-17T00:41:11.700Z,56.20
2022-10-17T00:42:11.662Z,57.38
2022-10-17T00:43:12.466Z,55.89
2022-10-17T00:44:11.674Z,56.22
2022-10-17T00:45:11.665Z,61.36
2022-10-17T00:46:11.634Z,61.24
2022-10-17T00:47:11.621Z,57.83
2022-10-17T00:48:11.658Z,65.35
2022-10-17T00:49:11.658Z,56.61
2022-10-17T00:50:11.630Z,60.01
2022-10-17T00:51:11.606Z,56.40
2022-10-17T00:52:12.063Z,56.48
2022-10-17T00:53:11.603Z,59.74
2022-10-17T00:54:11.598Z,55.89
2022-10-17T00:55:11.596Z,55.80
2022-10-17T00:56:11.591Z,58.73
2022-10-17T00:57:11.603Z,55.12
2022-10-17T00:58:11.585Z,57.16
2022-10-17T00:59:11.572Z,56.18
2022-10-17T01:00:11.551Z,56.25
2022-10-17T01:01:11.564Z,61.10
2022-10-17T01:02:11.551Z,56.24
2022-10-17T01:03:11.534Z,57.31
2022-10-17T01:04:11.538Z,57.73
2022-10-17T01:05:11.529Z,58.85
2022-10-17T01:06:11.498Z,55.96
2022-10-17T01:07:11.519Z,56.15
2022-10-17T01:08:11.497Z,56.78
2022-10-17T01:09:11.501Z,62.77
2022-10-17T01:10:11.552Z,59.25
2022-10-17T01:11:11.481Z,56.50
2022-10-17T01:12:11.493Z,57.16
2022-10-17T01:13:11.478Z,57.28
2022-10-17T01:14:11.466Z,64.53
2022-10-17T01:15:11.450Z,56.19
2022-10-17T01:16:11.462Z,56.66
2022-10-17T01:17:11.458Z,63.11
2022-10-17T01:18:11.434Z,56.94
2022-10-17T01:19:11.493Z,58.09
2022-10-17T01:20:12.018Z,57.99
2022-10-17T01:21:11.418Z,60.77
2022-10-17T01:22:11.558Z,61.71
2022-10-17T01:23:11.401Z,57.58
2022-10-17T01:24:11.410Z,59.74
2022-10-17T01:25:11.450Z,58.60
2022-10-17T01:26:11.398Z,60.41
2022-10-17T01:27:11.393Z,57.62
2022-10-17T01:28:11.362Z,56.26
2022-10-17T01:29:11.370Z,65.16
2022-10-17T01:30:11.350Z,56.33
2022-10-17T01:31:11.350Z,56.19
2022-10-17T01:32:11.359Z,56.47
2022-10-17T01:33:11.333Z,64.86
2022-10-17T01:34:11.321Z,57.67
2022-10-17T01:35:11.345Z,56.34
2022-10-17T01:36:11.318Z,58.83
2022-10-17T01:37:11.307Z,62.05
2022-10-17T01:38:11.330Z,59.32
2022-10-17T01:39:11.298Z,55.87
2022-10-17T01:40:11.301Z,55.36
2022-10-17T01:41:11.288Z,61.88
2022-10-17T01:42:11.284Z,57.26
2022-10-17T01:43:11.270Z,59.55
2022-10-17T01:44:11.278Z,55.66
2022-10-17T01:45:11.261Z,56.94
2022-10-17T01:46:11.248Z,55.89
2022-10-17T01:47:11.248Z,55.80
2022-10-17T01:48:11.242Z,55.58
2022-10-17T01:49:11.241Z,61.97
2022-10-17T01:50:11.225Z,55.12
2022-10-17T01:51:11.226Z,55.29
2022-10-17T01:52:11.241Z,62.29
2022-10-17T01:53:11.214Z,64.79
2022-10-17T01:54:11.246Z,62.43
2022-10-17T01:55:11.214Z,56.66
2022-10-17T01:56:11.196Z,57.85
2022-10-17T01:57:11.177Z,54.32
2022-10-17T01:58:11.194Z,58.02
2022-10-17T01:59:11.173Z,63.25
2022-10-17T02:00:11.160Z,55.12
2022-10-17T02:01:11.220Z,54.80
2022-10-17T02:02:11.142Z,61.72
2022-10-17T02:03:12.135Z,60.93
2022-10-17T02:04:11.122Z,62.29
2022-10-17T02:05:11.127Z,56.01
2022-10-17T02:06:11.121Z,62.20
2022-10-17T02:07:11.109Z,59.95
2022-10-17T02:08:11.091Z,56.24
2022-10-17T02:09:11.089Z,55.13
2022-10-17T02:10:11.093Z,55.05
2022-10-17T02:11:11.105Z,54.76
2022-10-17T02:12:11.073Z,55.81
2022-10-17T02:13:11.061Z,57.09
2022-10-17T02:15:11.053Z,54.87
2022-10-17T02:16:11.045Z,54.76
2022-10-17T02:17:11.045Z,58.10
2022-10-17T02:18:11.020Z,66.65
2022-10-17T02:19:11.029Z,54.14
2022-10-17T02:20:11.017Z,55.01
2022-10-17T02:21:11.037Z,55.26
2022-10-17T02:22:11.017Z,59.99
2022-10-17T02:23:11.052Z,56.04
2022-10-17T02:24:10.980Z,64.83
2022-10-17T02:25:10.989Z,61.57
2022-10-17T02:26:11.003Z,64.50
2022-10-17T02:27:10.966Z,63.28
2022-10-17T02:28:10.956Z,55.92
2022-10-17T02:29:10.965Z,59.35
2022-10-17T02:30:10.947Z,61.74
2022-10-17T02:31:10.945Z,61.98
2022-10-17T02:32:10.998Z,61.61
2022-10-17T02:33:11.945Z,60.01
2022-10-17T02:34:10.933Z,58.81
2022-10-17T02:35:10.917Z,63.69
2022-10-17T02:36:10.913Z,58.45
2022-10-17T02:37:10.909Z,61.66
2022-10-17T02:38:10.911Z,56.22
2022-10-17T02:39:10.876Z,68.92
2022-10-17T02:40:10.889Z,62.38
2022-10-17T02:41:10.874Z,58.59
2022-10-17T02:42:10.880Z,55.31
2022-10-17T02:43:10.868Z,61.08
2022-10-17T02:44:10.855Z,58.97
2022-10-17T02:45:10.841Z,55.95
2022-10-17T02:46:10.843Z,55.80
2022-10-17T02:47:11.856Z,66.21
2022-10-17T02:48:10.834Z,59.93
2022-10-17T02:49:10.825Z,64.32
2022-10-17T02:50:10.809Z,62.13
2022-10-17T02:51:10.802Z,58.39
2022-10-17T02:52:10.806Z,56.62
2022-10-17T02:53:10.777Z,60.90
2022-10-17T02:54:10.781Z,59.67
2022-10-17T02:55:10.777Z,60.74
2022-10-17T02:56:10.800Z,63.88
2022-10-17T02:57:10.773Z,62.74
2022-10-17T02:58:10.773Z,68.95
2022-10-17T02:59:10.748Z,70.42
2022-10-17T03:00:10.737Z,71.58
2022-10-17T03:01:10.778Z,64.17
2022-10-17T03:02:10.759Z,59.62
2022-10-17T03:03:10.749Z,61.58
2022-10-17T03:04:10.715Z,61.67
2022-10-17T03:05:10.706Z,57.67
2022-10-17T03:06:10.696Z,64.28
2022-10-17T03:07:10.717Z,62.99
2022-10-17T03:08:10.696Z,65.20
2022-10-17T03:09:10.664Z,68.56
2022-10-17T03:10:10.678Z,64.51
2022-10-17T03:11:10.701Z,67.97
2022-10-17T03:12:10.668Z,67.59
2022-10-17T03:13:10.670Z,61.48
2022-10-17T03:14:10.646Z,65.53
2022-10-17T03:15:10.676Z,70.60
2022-10-17T03:16:10.635Z,69.76
2022-10-17T03:17:10.646Z,66.28
2022-10-17T03:18:10.621Z,70.72
2022-10-17T03:19:10.616Z,61.89
2022-10-17T03:20:10.620Z,70.02
2022-10-17T03:21:10.588Z,67.43
2022-10-17T03:22:10.617Z,71.28
2022-10-17T03:23:10.585Z,65.31
2022-10-17T03:24:10.574Z,66.44
2022-10-17T03:25:38.024Z,69.78
2022-10-17T03:26:10.557Z,71.42
2022-10-17T03:27:10.556Z,66.07
2022-10-17T03:28:10.573Z,65.62
2022-10-17T03:29:10.642Z,67.07
2022-10-17T03:30:10.545Z,66.56
2022-10-17T03:31:10.549Z,67.45
2022-10-17T03:32:10.521Z,72.24
2022-10-17T03:33:10.525Z,62.72
2022-10-17T03:34:10.524Z,71.09
2022-10-17T03:35:14.796Z,72.84
2022-10-17T03:36:11.494Z,65.88
2022-10-17T03:37:10.502Z,69.77
2022-10-17T03:38:10.490Z,64.80
2022-10-17T03:39:10.477Z,69.40
2022-10-17T03:40:10.474Z,69.64
2022-10-17T03:41:10.484Z,68.81
2022-10-17T03:42:10.454Z,66.93
2022-10-17T03:43:10.454Z,69.99
2022-10-17T03:44:10.442Z,71.36
2022-10-17T03:45:10.438Z,67.51
2022-10-17T03:46:10.471Z,74.55
2022-10-17T03:47:13.339Z,68.23
2022-10-17T03:48:10.409Z,72.80
2022-10-17T03:49:10.426Z,69.45
2022-10-17T03:50:10.398Z,69.48
2022-10-17T03:51:10.402Z,69.47
2022-10-17T03:52:10.387Z,68.92
2022-10-17T03:53:10.394Z,71.04
2022-10-17T03:54:10.409Z,72.21
2022-10-17T03:55:10.384Z,65.02
2022-10-17T03:56:10.360Z,72.84
2022-10-17T03:57:10.361Z,70.72
2022-10-17T03:58:10.382Z,70.63
2022-10-17T03:59:10.357Z,70.84
2022-10-17T04:00:10.356Z,72.97
2022-10-17T04:01:10.386Z,71.05
2022-10-17T04:02:11.037Z,64.62
2022-10-17T04:03:16.263Z,65.02
2022-10-17T04:04:12.329Z,71.03
2022-10-17T04:05:11.032Z,65.97
2022-10-17T04:06:10.293Z,67.23
2022-10-17T04:07:10.292Z,72.92
2022-10-17T04:08:10.293Z,72.05
2022-10-17T04:09:10.297Z,68.81
2022-10-17T04:10:10.290Z,66.82
2022-10-17T04:11:10.268Z,73.94
2022-10-17T04:12:10.292Z,67.99
2022-10-17T04:13:10.252Z,72.68
2022-10-17T04:14:10.256Z,64.51
2022-10-17T04:15:10.277Z,70.22
2022-10-17T04:16:10.250Z,68.96
2022-10-17T04:17:10.236Z,70.96
2022-10-17T04:18:10.222Z,68.83
2022-10-17T04:19:10.212Z,68.31
2022-10-17T04:20:10.219Z,69.23
2022-10-17T04:21:10.212Z,75.46
2022-10-17T04:22:10.208Z,73.77
2022-10-17T04:23:10.192Z,72.28
2022-10-17T04:24:10.180Z,70.56
2022-10-17T04:25:10.169Z,66.08
2022-10-17T04:26:10.193Z,69.49
2022-10-17T04:27:10.161Z,68.35
2022-10-17T04:28:10.165Z,68.16
2022-10-17T04:29:10.141Z,70.61
2022-10-17T04:30:10.133Z,70.71
2022-10-17T04:31:10.134Z,70.19
2022-10-17T04:32:10.140Z,66.13
2022-10-17T04:33:10.121Z,71.38
2022-10-17T04:34:10.116Z,71.28
2022-10-17T04:35:11.000Z,71.24
2022-10-17T04:36:10.096Z,68.39
2022-10-17T04:37:10.100Z,70.36
2022-10-17T04:38:10.096Z,74.90
2022-10-17T04:39:10.138Z,69.81
2022-10-17T04:40:10.070Z,75.97
2022-10-17T04:41:10.087Z,72.43
2022-10-17T04:42:10.073Z,74.11
2022-10-17T04:43:10.053Z,72.03
2022-10-17T04:44:10.049Z,70.51
2022-10-17T04:45:10.060Z,71.45
2022-10-17T04:46:10.030Z,72.28
2022-10-17T04:47:10.052Z,70.91
2022-10-17T04:48:10.025Z,72.61
2022-10-17T04:49:10.019Z,70.95
2022-10-17T04:50:10.029Z,74.81
2022-10-17T04:51:10.026Z,72.19
2022-10-17T04:52:10.005Z,69.08
2022-10-17T04:53:10.012Z,71.56
2022-10-17T04:54:10.019Z,70.18
2022-10-17T04:55:10.055Z,73.86
2022-10-17T04:56:10.535Z,67.68
2022-10-17T04:57:09.944Z,74.90
2022-10-17T04:58:10.083Z,71.27
2022-10-17T04:59:09.947Z,71.18
2022-10-17T05:01:10.980Z,73.41
2022-10-17T05:02:09.916Z,70.12
2022-10-17T05:03:09.928Z,72.96
2022-10-17T05:04:09.924Z,73.78
2022-10-17T05:05:09.901Z,72.89
2022-10-17T05:06:09.896Z,72.45
2022-10-17T05:07:09.903Z,71.02
2022-10-17T05:08:09.926Z,72.49
2022-10-17T05:09:10.865Z,73.04
2022-10-17T05:10:09.863Z,68.68
2022-10-17T05:11:09.853Z,75.40
2022-10-17T05:12:10.494Z,73.24
2022-10-17T05:13:09.849Z,73.50
2022-10-17T05:14:09.863Z,74.01
2022-10-17T05:15:09.816Z,71.70
2022-10-17T05:16:10.815Z,70.81
2022-10-17T05:17:09.835Z,73.12
2022-10-17T05:18:09.824Z,73.16
2022-10-17T05:19:09.842Z,72.50
2022-10-17T05:20:09.792Z,70.79
2022-10-17T05:21:09.786Z,72.38
2022-10-17T05:22:09.782Z,72.76
2022-10-17T05:23:09.763Z,72.33
2022-10-17T05:24:09.771Z,72.66
2022-10-17T05:25:09.786Z,71.25
2022-10-17T05:26:09.754Z,76.51
2022-10-17T05:27:09.750Z,74.50
2022-10-17T05:28:09.730Z,72.86
2022-10-17T05:29:09.811Z,72.03
2022-10-17T05:30:09.790Z,76.23
2022-10-17T05:31:09.731Z,72.71
2022-10-17T05:32:09.713Z,72.17
2022-10-17T05:33:09.717Z,73.88
2022-10-17T05:34:11.657Z,70.34
2022-10-17T05:35:09.707Z,75.70
2022-10-17T05:36:09.697Z,76.34
2022-10-17T05:37:09.681Z,75.86
2022-10-17T05:38:09.673Z,70.03
2022-10-17T05:39:09.692Z,73.19
2022-10-17T05:40:09.678Z,75.80
2022-10-17T05:41:09.648Z,74.63
2022-10-17T05:42:09.672Z,72.57
2022-10-17T05:43:09.631Z,74.58
2022-10-17T05:44:09.639Z,72.09
2022-10-17T05:45:09.649Z,70.31
2022-10-17T05:46:09.643Z,72.30
2022-10-17T05:47:09.639Z,68.33
2022-10-17T05:48:09.607Z,72.22
2022-10-17T05:49:19.436Z,72.78
2022-10-17T05:50:11.605Z,74.05
2022-10-17T05:51:09.650Z,72.30
2022-10-17T05:52:09.596Z,72.36
2022-10-17T05:53:09.570Z,70.08
2022-10-17T05:54:10.593Z,73.24
2022-10-17T05:55:09.655Z,68.61
2022-10-17T05:56:09.708Z,77.17
2022-10-17T05:57:09.580Z,72.91
2022-10-17T05:58:14.252Z,74.49
2022-10-17T05:59:10.536Z,67.48
2022-10-17T06:00:09.595Z,72.76
2022-10-17T06:01:12.112Z,74.59
2022-10-17T06:02:09.607Z,68.25
2022-10-17T06:03:09.550Z,73.14
2022-10-17T06:04:09.495Z,73.39
2022-10-17T06:05:09.499Z,68.74
2022-10-17T06:06:09.538Z,71.10
2022-10-17T06:07:09.482Z,72.44
2022-10-17T06:08:09.505Z,73.13
2022-10-17T06:09:09.506Z,72.58
2022-10-17T06:10:09.458Z,72.67
2022-10-17T06:11:10.536Z,72.10
2022-10-17T06:12:09.489Z,74.47
2022-10-17T06:13:09.446Z,72.39
2022-10-17T06:14:09.433Z,74.69
2022-10-17T06:15:09.444Z,72.54
2022-10-17T06:16:09.424Z,73.06
2022-10-17T06:17:14.817Z,69.00
2022-10-17T06:18:11.409Z,74.41
2022-10-17T06:19:09.454Z,73.98
2022-10-17T06:20:09.440Z,73.63
2022-10-17T06:21:09.386Z,72.92
2022-10-17T06:22:09.537Z,73.78
2022-10-17T06:23:09.373Z,72.54
2022-10-17T06:24:09.372Z,76.21
2022-10-17T06:25:09.388Z,73.77
2022-10-17T06:26:09.347Z,71.26
2022-10-17T06:27:11.793Z,70.38
2022-10-17T06:28:10.352Z,73.51
2022-10-17T06:29:10.519Z,71.64
2022-10-17T06:30:09.332Z,73.33
2022-10-17T06:31:09.329Z,72.03
2022-10-17T06:32:12.599Z,73.92
2022-10-17T06:33:10.310Z,75.11
2022-10-17T06:34:09.308Z,69.13
2022-10-17T06:35:09.304Z,70.79
2022-10-17T06:36:09.276Z,68.69
2022-10-17T06:37:09.308Z,72.33
2022-10-17T06:38:09.280Z,72.07
2022-10-17T06:39:09.251Z,73.35
2022-10-17T06:40:09.251Z,72.79
2022-10-17T06:41:09.247Z,74.13
2022-10-17T06:42:09.238Z,74.46
2022-10-17T06:43:09.250Z,72.45
2022-10-17T06:44:09.259Z,74.84
2022-10-17T06:45:09.238Z,72.71
2022-10-17T06:46:09.200Z,71.90
2022-10-17T06:47:09.230Z,71.71
2022-10-17T06:48:10.025Z,74.32
2022-10-17T06:49:10.207Z,72.55
2022-10-17T06:50:09.180Z,72.65
2022-10-17T06:51:09.177Z,68.88
2022-10-17T06:52:09.193Z,74.90
2022-10-17T06:53:09.189Z,70.42
2022-10-17T06:54:09.171Z,73.66
2022-10-17T06:55:09.163Z,71.48
2022-10-17T06:56:09.139Z,73.13
2022-10-17T06:57:09.214Z,69.54
2022-10-17T06:58:09.136Z,73.72
2022-10-17T06:59:09.207Z,72.02
2022-10-17T07:00:09.117Z,72.15
2022-10-17T07:02:10.117Z,65.59
2022-10-17T07:03:09.149Z,74.35
2022-10-17T07:04:09.100Z,67.33
2022-10-17T07:05:09.255Z,71.58
2022-10-17T07:06:09.068Z,69.63
2022-10-17T07:07:09.064Z,71.72
2022-10-17T07:08:10.111Z,69.30
2022-10-17T07:09:09.072Z,73.84
2022-10-17T07:10:09.083Z,71.72
2022-10-17T07:11:09.103Z,71.50
2022-10-17T07:12:09.060Z,71.79
2022-10-17T07:13:09.041Z,74.43
2022-10-17T07:14:09.036Z,72.68
2022-10-17T07:15:09.067Z,74.06
2022-10-17T07:16:09.047Z,67.48
2022-10-17T07:17:09.020Z,72.95
2022-10-17T07:18:09.035Z,72.29
2022-10-17T07:19:10.024Z,73.51
2022-10-17T07:20:09.010Z,69.89
2022-10-17T07:21:09.063Z,66.52
2022-10-17T07:22:08.987Z,73.86
2022-10-17T07:23:08.983Z,71.09
2022-10-17T07:24:08.994Z,70.63
2022-10-17T07:25:08.975Z,67.25
2022-10-17T07:26:09.011Z,72.42
2022-10-17T07:27:08.967Z,67.98
2022-10-17T07:28:09.002Z,73.62
2022-10-17T07:29:08.978Z,70.74
2022-10-17T07:30:08.945Z,69.52
2022-10-17T07:31:09.034Z,71.88
2022-10-17T07:32:08.990Z,68.00
2022-10-17T07:33:08.913Z,72.22
2022-10-17T07:34:08.928Z,70.71
2022-10-17T07:35:08.921Z,75.28
2022-10-17T07:36:08.909Z,66.63
2022-10-17T07:37:09.018Z,71.38
2022-10-17T07:38:08.933Z,69.48
2022-10-17T07:39:08.881Z,69.79
2022-10-17T07:40:08.905Z,70.19
2022-10-17T07:41:08.917Z,69.90
2022-10-17T07:42:08.873Z,68.53
2022-10-17T07:43:08.874Z,73.58
2022-10-17T07:44:08.886Z,70.53
2022-10-17T07:45:08.868Z,70.23
2022-10-17T07:46:08.868Z,72.53
2022-10-17T07:47:08.956Z,66.26
2022-10-17T07:48:08.843Z,72.42
2022-10-17T07:49:08.842Z,64.92
2022-10-17T07:50:08.835Z,70.76
2022-10-17T07:51:08.873Z,72.08
2022-10-17T07:52:08.824Z,73.35
2022-10-17T07:53:08.812Z,68.27
2022-10-17T07:54:08.827Z,69.04
2022-10-17T07:55:08.846Z,71.62
2022-10-17T07:56:08.792Z,70.15
2022-10-17T07:57:08.852Z,68.19
2022-10-17T07:58:08.778Z,68.14
2022-10-17T07:59:09.540Z,67.25
2022-10-17T08:00:08.767Z,71.08
2022-10-17T08:01:12.209Z,74.92
2022-10-17T08:02:09.779Z,70.96
2022-10-17T08:03:08.756Z,67.66
2022-10-17T08:04:08.747Z,67.63
2022-10-17T08:05:08.739Z,70.23
2022-10-17T08:06:08.736Z,71.25
2022-10-17T08:07:21.001Z,72.57
2022-10-17T08:08:10.743Z,69.84
2022-10-17T08:09:08.738Z,64.50
2022-10-17T08:11:08.715Z,71.12
2022-10-17T08:12:08.715Z,69.52
2022-10-17T08:13:08.741Z,73.29
2022-10-17T08:14:08.679Z,71.90
2022-10-17T08:15:08.714Z,67.66
2022-10-17T08:16:08.679Z,65.05
2022-10-17T08:17:08.736Z,72.67
2022-10-17T08:18:08.686Z,69.82
2022-10-17T08:20:08.662Z,73.07
2022-10-17T08:21:08.715Z,66.08
2022-10-17T08:22:08.658Z,68.84
2022-10-17T08:23:08.658Z,70.63
2022-10-17T08:24:08.710Z,70.66
2022-10-17T08:25:08.647Z,72.71
2022-10-17T08:26:08.618Z,66.75
2022-10-17T08:27:08.636Z,72.57
2022-10-17T08:28:08.647Z,71.40
2022-10-17T08:29:08.675Z,71.42
2022-10-17T08:30:08.610Z,70.94
2022-10-17T08:31:08.605Z,66.14
2022-10-17T08:32:09.864Z,70.68
2022-10-17T08:33:08.587Z,66.63
2022-10-17T08:34:08.634Z,69.20
2022-10-17T08:35:08.590Z,69.11
2022-10-17T08:36:08.590Z,71.04
2022-10-17T08:37:08.564Z,69.47
2022-10-17T08:38:11.021Z,72.37
2022-10-17T08:39:08.591Z,72.09
2022-10-17T08:40:08.598Z,68.57
2022-10-17T08:41:08.543Z,72.79
2022-10-17T08:42:08.510Z,72.02
2022-10-17T08:43:08.541Z,70.04
2022-10-17T08:44:08.501Z,70.31
2022-10-17T08:45:08.518Z,70.00
2022-10-17T08:46:08.503Z,66.46
2022-10-17T08:47:08.482Z,67.07
2022-10-17T08:48:08.477Z,72.21
2022-10-17T08:49:12.089Z,68.29
2022-10-17T08:50:09.486Z,69.26
2022-10-17T08:51:08.465Z,72.16
2022-10-17T08:52:08.450Z,70.80
2022-10-17T08:53:08.471Z,67.71
2022-10-17T08:54:08.476Z,73.04
2022-10-17T08:55:08.483Z,70.03
2022-10-17T08:56:11.947Z,69.16
2022-10-17T08:57:10.972Z,71.75
2022-10-17T08:58:08.432Z,69.49
2022-10-17T08:59:08.399Z,71.01
2022-10-17T09:00:08.416Z,67.11
2022-10-17T09:01:12.921Z,69.18
2022-10-17T09:02:09.391Z,66.61
2022-10-17T09:03:08.479Z,69.15
2022-10-17T09:04:08.387Z,70.23
2022-10-17T09:05:08.464Z,64.61
2022-10-17T09:06:08.392Z,70.98
2022-10-17T09:07:08.360Z,68.63
2022-10-17T09:08:08.453Z,69.22
2022-10-17T09:09:08.350Z,68.52
2022-10-17T09:10:08.355Z,71.78
2022-10-17T09:11:08.360Z,71.96
2022-10-17T09:12:08.364Z,69.22
2022-10-17T09:13:08.415Z,69.99
2022-10-17T09:14:08.323Z,71.53
2022-10-17T09:15:08.346Z,69.38
2022-10-17T09:16:08.336Z,71.66
2022-10-17T09:17:08.310Z,65.92
2022-10-17T09:18:08.327Z,70.60
2022-10-17T09:19:08.299Z,66.72
2022-10-17T09:20:08.276Z,70.21
2022-10-17T09:21:08.341Z,69.57
2022-10-17T09:22:08.275Z,67.29
2022-10-17T09:23:08.266Z,70.82
2022-10-17T09:24:15.433Z,69.61
2022-10-17T09:25:11.246Z,70.76
2022-10-17T09:26:08.258Z,68.71
2022-10-17T09:27:08.255Z,61.00
2022-10-17T09:28:08.284Z,62.69
2022-10-17T09:29:08.332Z,71.01
2022-10-17T09:30:13.044Z,72.28
2022-10-17T09:31:34.200Z,71.02
2022-10-17T09:32:08.202Z,68.05
2022-10-17T09:33:08.204Z,69.35
2022-10-17T09:34:08.198Z,68.25
2022-10-17T09:35:08.194Z,67.59
2022-10-17T09:36:08.181Z,71.73
2022-10-17T09:37:08.190Z,68.60
2022-10-17T09:38:08.191Z,69.00
2022-10-17T09:39:08.170Z,67.46
2022-10-17T09:40:08.174Z,68.81
2022-10-17T09:41:25.676Z,73.02
2022-10-17T09:42:10.158Z,69.95
2022-10-17T09:43:08.200Z,72.29
2022-10-17T09:44:08.134Z,68.10
2022-10-17T09:45:08.142Z,67.88
2022-10-17T09:46:08.114Z,72.84
2022-10-17T09:47:08.162Z,67.72
2022-10-17T09:48:08.127Z,69.28
2022-10-17T09:49:08.924Z,70.21
2022-10-17T09:50:08.104Z,69.57
2022-10-17T09:51:22.024Z,72.53
2022-10-17T09:52:10.093Z,71.29
2022-10-17T09:53:08.095Z,65.28
2022-10-17T09:54:08.126Z,71.84
2022-10-17T09:55:08.071Z,67.49
2022-10-17T09:56:08.066Z,70.20
2022-10-17T09:57:08.062Z,69.29
2022-10-17T09:58:08.050Z,69.47
2022-10-17T09:59:12.909Z,68.82
2022-10-17T10:00:10.075Z,67.44
2022-10-17T10:01:08.109Z,70.10
2022-10-17T10:02:08.034Z,72.51
2022-10-17T10:03:09.037Z,69.52
2022-10-17T10:04:08.034Z,72.13
2022-10-17T10:05:08.026Z,69.92
2022-10-17T10:06:07.998Z,69.72
2022-10-17T10:07:07.991Z,72.05
2022-10-17T10:08:08.031Z,69.33
2022-10-17T10:09:07.990Z,67.99
2022-10-17T10:10:07.982Z,67.01
2022-10-17T10:11:11.838Z,69.73
2022-10-17T10:12:08.978Z,68.53
2022-10-17T10:13:07.977Z,64.60
2022-10-17T10:14:07.966Z,66.74
2022-10-17T10:15:07.999Z,70.64
2022-10-17T10:16:07.957Z,69.23
2022-10-17T10:17:07.945Z,69.09
2022-10-17T10:18:07.945Z,69.93
2022-10-17T10:19:09.143Z,68.10
2022-10-17T10:20:07.963Z,69.22
2022-10-17T10:21:07.953Z,71.23
2022-10-17T10:22:07.924Z,69.96
2022-10-17T10:23:07.926Z,67.48
2022-10-17T10:24:07.933Z,73.06
2022-10-17T10:25:07.913Z,70.71
2022-10-17T10:26:07.917Z,71.26
2022-10-17T10:27:07.921Z,70.51
2022-10-17T10:28:07.895Z,67.23
2022-10-17T10:29:07.982Z,69.62
2022-10-17T10:30:07.886Z,72.32
2022-10-17T10:31:07.889Z,72.74
2022-10-17T10:32:07.877Z,73.22
2022-10-17T10:33:07.873Z,69.07
2022-10-17T10:34:07.877Z,70.38
2022-10-17T10:35:07.868Z,69.80
2022-10-17T10:36:07.859Z,70.18
2022-10-17T10:37:07.870Z,71.49
2022-10-17T10:38:07.849Z,72.13
2022-10-17T10:39:07.866Z,69.74
2022-10-17T10:40:07.855Z,70.41
2022-10-17T10:41:07.836Z,70.70
2022-10-17T10:42:07.828Z,72.70
2022-10-17T10:43:07.841Z,68.42
2022-10-17T10:44:07.821Z,70.47
2022-10-17T10:45:11.979Z,70.53
2022-10-17T10:46:08.833Z,68.42
2022-10-17T10:47:07.796Z,69.56
2022-10-17T10:48:07.829Z,71.19
2022-10-17T10:49:07.804Z,68.48
2022-10-17T10:50:07.795Z,72.74
2022-10-17T10:51:07.796Z,68.36
2022-10-17T10:52:07.796Z,69.62
2022-10-17T10:53:07.767Z,70.52
2022-10-17T10:54:08.768Z,70.49
2022-10-17T10:55:07.743Z,68.08
2022-10-17T10:56:07.747Z,71.57
2022-10-17T10:57:07.751Z,71.29
2022-10-17T10:58:07.752Z,68.98
2022-10-17T10:59:07.728Z,69.91
2022-10-17T11:00:07.723Z,68.80
2022-10-17T11:01:07.831Z,70.45
2022-10-17T11:02:07.758Z,69.92
2022-10-17T11:03:11.847Z,71.07
2022-10-17T11:04:09.705Z,72.18
2022-10-17T11:05:07.692Z,72.18
2022-10-17T11:06:07.702Z,72.72
2022-10-17T11:07:08.697Z,72.42
2022-10-17T11:08:07.663Z,71.40
2022-10-17T11:09:07.656Z,69.49
2022-10-17T11:10:07.645Z,72.44
2022-10-17T11:11:07.645Z,71.24
2022-10-17T11:12:07.651Z,69.53
2022-10-17T11:13:07.648Z,72.28
2022-10-17T11:14:09.644Z,72.48
2022-10-17T11:15:08.615Z,70.38
2022-10-17T11:16:07.621Z,72.88
2022-10-17T11:17:07.611Z,71.57
2022-10-17T11:18:07.615Z,70.69
2022-10-17T11:19:07.624Z,68.90
2022-10-17T11:20:07.608Z,69.59
2022-10-17T11:21:08.106Z,67.15
2022-10-17T11:22:07.606Z,70.19
2022-10-17T11:23:07.602Z,70.72
2022-10-17T11:24:09.048Z,69.99
2022-10-17T11:25:07.582Z,68.98
2022-10-17T11:26:07.577Z,66.95
2022-10-17T11:27:07.560Z,71.97
2022-10-17T11:28:07.564Z,68.63
2022-10-17T11:29:07.646Z,68.46
2022-10-17T11:30:07.555Z,70.11
2022-10-17T11:31:08.126Z,70.66
2022-10-17T11:32:07.525Z,70.94
2022-10-17T11:33:07.647Z,72.57
2022-10-17T11:34:07.532Z,70.83
2022-10-17T11:35:07.547Z,70.49
2022-10-17T11:36:07.511Z,67.87
2022-10-17T11:37:07.503Z,72.55
2022-10-17T11:38:07.507Z,66.61
2022-10-17T11:39:07.499Z,69.87
2022-10-17T11:40:07.483Z,71.21
2022-10-17T11:41:07.483Z,71.05
2022-10-17T11:42:07.483Z,67.81
2022-10-17T11:43:07.482Z,65.81
2022-10-17T11:44:07.531Z,70.29
2022-10-17T11:45:07.476Z,73.58
2022-10-17T11:46:07.450Z,67.33
2022-10-17T11:47:07.445Z,69.46
2022-10-17T11:48:07.434Z,69.15
2022-10-17T11:49:07.535Z,70.82
2022-10-17T11:52:09.429Z,67.93
2022-10-17T11:53:07.413Z,70.73
2022-10-17T11:54:07.464Z,70.79
2022-10-17T11:55:07.399Z,66.19
2022-10-17T11:56:07.406Z,71.14
2022-10-17T11:57:08.523Z,69.93
2022-10-17T11:58:07.365Z,70.85
2022-10-17T11:59:07.370Z,68.51
2022-10-17T12:00:07.399Z,73.64
2022-10-17T12:01:07.370Z,70.17
2022-10-17T12:02:07.377Z,70.47
2022-10-17T12:03:07.344Z,72.20
2022-10-17T12:04:07.426Z,71.85
2022-10-17T12:05:07.335Z,68.57
2022-10-17T12:06:07.340Z,71.52
2022-10-17T12:07:07.345Z,68.91
2022-10-17T12:08:07.344Z,70.40
2022-10-17T12:09:07.348Z,71.85
2022-10-17T12:10:07.303Z,68.57
2022-10-17T12:11:07.291Z,68.36
2022-10-17T12:12:07.303Z,72.18
2022-10-17T12:13:08.283Z,72.38
2022-10-17T12:14:07.613Z,68.16
2022-10-17T12:15:07.287Z,70.46
2022-10-17T12:16:07.272Z,68.52
2022-10-17T12:17:07.263Z,65.39
2022-10-17T12:18:07.267Z,71.85
2022-10-17T12:19:07.267Z,69.83
2022-10-17T12:20:07.265Z,68.23
2022-10-17T12:21:07.231Z,70.14
2022-10-17T12:22:07.236Z,73.89
2022-10-17T12:23:07.253Z,69.13
2022-10-17T12:24:07.243Z,70.06
2022-10-17T12:25:07.220Z,72.00
2022-10-17T12:26:07.244Z,71.01
2022-10-17T12:27:07.275Z,72.03
2022-10-17T12:28:07.246Z,70.74
2022-10-17T12:29:07.291Z,72.07
2022-10-17T12:30:07.186Z,70.79
2022-10-17T12:31:07.205Z,70.97
2022-10-17T12:32:07.165Z,69.22
2022-10-17T12:33:08.270Z,66.41
2022-10-17T12:34:08.168Z,70.47
2022-10-17T12:35:07.155Z,69.63
2022-10-17T12:36:07.156Z,70.24
2022-10-17T12:37:07.171Z,72.91
2022-10-17T12:38:07.143Z,70.64
2022-10-17T12:39:07.787Z,68.12
2022-10-17T12:40:07.137Z,68.18
2022-10-17T12:41:07.154Z,72.53
2022-10-17T12:42:07.144Z,72.67
2022-10-17T12:43:07.144Z,71.18
2022-10-17T12:44:07.125Z,71.99
2022-10-17T12:45:07.154Z,65.05
2022-10-17T12:46:07.099Z,71.71
2022-10-17T12:47:07.152Z,71.11
2022-10-17T12:48:07.079Z,72.52
2022-10-17T12:49:07.089Z,69.57
2022-10-17T12:50:07.613Z,68.91
2022-10-17T12:52:09.057Z,70.36
2022-10-17T12:53:07.054Z,62.51
2022-10-17T12:54:07.058Z,72.85
2022-10-17T12:55:14.661Z,69.49
2022-10-17T12:56:09.039Z,69.48
2022-10-17T12:57:07.028Z,67.32
2022-10-17T12:58:07.019Z,70.01
2022-10-17T12:59:07.018Z,70.85
2022-10-17T13:00:07.032Z,67.17